sensor_id;sensor_type;location;lat;lon;timestamp;P1;durP1;ratioP1;P2;durP2;ratioP2
16640;SDS011;8434;47.990;7.880;2024-03-08T00:00:20;26.47;;;11.77;;
16640;SDS011;8434;47.990;7.880;2024-03-08T00:03:05;21.10;;;11.17;;
16640;SDS011;8434;47.990;7.880;2024-03-08T00:05:51;22.67;;;10.57;;
16640;SDS011;8434;47.990;7.880;2024-03-08T00:08:38;23.73;;;12.43;;
16640;SDS011;8434;47.990;7.880;2024-03-08T00:11:23;26.10;;;12.33;;
16640;SDS011;8434;47.990;7.880;2024-03-08T00:14:09;24.83;;;12.47;;
16640;SDS011;8434;47.990;7.880;2024-03-08T00:16:55;24.20;;;12.37;;
16640;SDS011;8434;47.990;7.880;2024-03-08T00:19:40;24.10;;;11.53;;
16640;SDS011;8434;47.990;7.880;2024-03-08T00:22:26;20.97;;;10.47;;
16640;SDS011;8434;47.990;7.880;2024-03-08T00:25:16;21.03;;;10.60;;
16640;SDS011;8434;47.990;7.880;2024-03-08T00:28:02;20.83;;;10.40;;
16640;SDS011;8434;47.990;7.880;2024-03-08T00:30:50;32.70;;;11.07;;
16640;SDS011;8434;47.990;7.880;2024-03-08T00:33:35;21.10;;;11.10;;
16640;SDS011;8434;47.990;7.880;2024-03-08T00:36:20;23.00;;;10.47;;
16640;SDS011;8434;47.990;7.880;2024-03-08T00:39:06;19.50;;;10.23;;
16640;SDS011;8434;47.990;7.880;2024-03-08T00:41:52;22.83;;;13.07;;
16640;SDS011;8434;47.990;7.880;2024-03-08T00:44:38;20.37;;;9.80;;
16640;SDS011;8434;47.990;7.880;2024-03-08T00:47:24;19.83;;;9.70;;
16640;SDS011;8434;47.990;7.880;2024-03-08T00:50:09;20.37;;;9.60;;
16640;SDS011;8434;47.990;7.880;2024-03-08T00:52:55;20.03;;;9.60;;
16640;SDS011;8434;47.990;7.880;2024-03-08T00:55:41;19.80;;;9.93;;
16640;SDS011;8434;47.990;7.880;2024-03-08T00:58:28;17.50;;;9.10;;
16640;SDS011;8434;47.990;7.880;2024-03-08T01:01:13;19.10;;;11.53;;
16640;SDS011;8434;47.990;7.880;2024-03-08T01:04:00;19.67;;;10.30;;
16640;SDS011;8434;47.990;7.880;2024-03-08T01:06:45;19.27;;;10.33;;
16640;SDS011;8434;47.990;7.880;2024-03-08T01:09:31;20.00;;;11.13;;
16640;SDS011;8434;47.990;7.880;2024-03-08T01:12:16;20.33;;;10.17;;
16640;SDS011;8434;47.990;7.880;2024-03-08T01:15:03;18.73;;;9.93;;
16640;SDS011;8434;47.990;7.880;2024-03-08T01:17:49;21.00;;;11.10;;
16640;SDS011;8434;47.990;7.880;2024-03-08T01:20:34;21.93;;;10.87;;
16640;SDS011;8434;47.990;7.880;2024-03-08T01:23:20;19.13;;;9.70;;
16640;SDS011;8434;47.990;7.880;2024-03-08T01:26:05;17.20;;;7.43;;
16640;SDS011;8434;47.990;7.880;2024-03-08T01:28:51;18.53;;;8.60;;
16640;SDS011;8434;47.990;7.880;2024-03-08T01:31:38;20.10;;;9.90;;
16640;SDS011;8434;47.990;7.880;2024-03-08T01:34:23;21.53;;;10.87;;
16640;SDS011;8434;47.990;7.880;2024-03-08T01:37:09;19.40;;;9.13;;
16640;SDS011;8434;47.990;7.880;2024-03-08T01:39:54;19.87;;;10.70;;
16640;SDS011;8434;47.990;7.880;2024-03-08T01:42:40;19.37;;;9.70;;
16640;SDS011;8434;47.990;7.880;2024-03-08T01:45:25;21.70;;;11.37;;
16640;SDS011;8434;47.990;7.880;2024-03-08T01:48:12;25.27;;;11.30;;
16640;SDS011;8434;47.990;7.880;2024-03-08T01:50:58;18.37;;;9.63;;
16640;SDS011;8434;47.990;7.880;2024-03-08T01:53:44;19.27;;;9.70;;
16640;SDS011;8434;47.990;7.880;2024-03-08T01:56:30;18.87;;;10.70;;
16640;SDS011;8434;47.990;7.880;2024-03-08T01:59:16;21.93;;;11.00;;
16640;SDS011;8434;47.990;7.880;2024-03-08T02:02:02;21.37;;;10.53;;
16640;SDS011;8434;47.990;7.880;2024-03-08T02:04:54;21.40;;;10.30;;
16640;SDS011;8434;47.990;7.880;2024-03-08T02:07:40;21.50;;;10.40;;
16640;SDS011;8434;47.990;7.880;2024-03-08T02:10:27;20.60;;;11.00;;
16640;SDS011;8434;47.990;7.880;2024-03-08T02:13:13;18.80;;;9.43;;
16640;SDS011;8434;47.990;7.880;2024-03-08T02:15:59;21.50;;;9.63;;
16640;SDS011;8434;47.990;7.880;2024-03-08T02:18:44;22.20;;;10.07;;
16640;SDS011;8434;47.990;7.880;2024-03-08T02:21:32;20.63;;;10.40;;
16640;SDS011;8434;47.990;7.880;2024-03-08T02:24:17;20.47;;;9.87;;
16640;SDS011;8434;47.990;7.880;2024-03-08T02:27:03;21.83;;;10.37;;
16640;SDS011;8434;47.990;7.880;2024-03-08T02:29:49;20.87;;;9.30;;
16640;SDS011;8434;47.990;7.880;2024-03-08T02:32:35;15.97;;;8.87;;
16640;SDS011;8434;47.990;7.880;2024-03-08T02:35:20;19.63;;;10.27;;
16640;SDS011;8434;47.990;7.880;2024-03-08T02:38:09;23.67;;;12.03;;
16640;SDS011;8434;47.990;7.880;2024-03-08T02:40:54;22.63;;;10.33;;
16640;SDS011;8434;47.990;7.880;2024-03-08T02:43:40;21.17;;;10.53;;
16640;SDS011;8434;47.990;7.880;2024-03-08T02:46:25;22.83;;;11.10;;
16640;SDS011;8434;47.990;7.880;2024-03-08T02:49:11;19.77;;;9.17;;
16640;SDS011;8434;47.990;7.880;2024-03-08T02:51:56;23.53;;;10.90;;
16640;SDS011;8434;47.990;7.880;2024-03-08T02:54:44;24.83;;;10.70;;
16640;SDS011;8434;47.990;7.880;2024-03-08T02:57:30;21.80;;;9.80;;
16640;SDS011;8434;47.990;7.880;2024-03-08T03:00:16;23.10;;;10.93;;
16640;SDS011;8434;47.990;7.880;2024-03-08T03:03:03;21.83;;;11.23;;
16640;SDS011;8434;47.990;7.880;2024-03-08T03:05:48;24.40;;;10.57;;
16640;SDS011;8434;47.990;7.880;2024-03-08T03:08:34;19.37;;;10.70;;
16640;SDS011;8434;47.990;7.880;2024-03-08T03:11:21;21.23;;;10.00;;
16640;SDS011;8434;47.990;7.880;2024-03-08T03:14:06;23.13;;;10.23;;
16640;SDS011;8434;47.990;7.880;2024-03-08T03:16:52;19.80;;;10.17;;
16640;SDS011;8434;47.990;7.880;2024-03-08T03:19:40;19.90;;;11.17;;
16640;SDS011;8434;47.990;7.880;2024-03-08T03:22:26;21.40;;;10.40;;
16640;SDS011;8434;47.990;7.880;2024-03-08T03:25:12;22.10;;;10.27;;
16640;SDS011;8434;47.990;7.880;2024-03-08T03:27:59;19.60;;;10.20;;
16640;SDS011;8434;47.990;7.880;2024-03-08T03:30:44;19.70;;;8.97;;
16640;SDS011;8434;47.990;7.880;2024-03-08T03:33:33;17.87;;;10.17;;
16640;SDS011;8434;47.990;7.880;2024-03-08T03:36:20;19.77;;;10.10;;
16640;SDS011;8434;47.990;7.880;2024-03-08T03:39:06;21.70;;;10.57;;
16640;SDS011;8434;47.990;7.880;2024-03-08T03:41:56;19.63;;;10.10;;
16640;SDS011;8434;47.990;7.880;2024-03-08T03:44:45;18.80;;;9.87;;
16640;SDS011;8434;47.990;7.880;2024-03-08T03:47:31;21.43;;;8.60;;
16640;SDS011;8434;47.990;7.880;2024-03-08T03:50:16;20.70;;;9.50;;
16640;SDS011;8434;47.990;7.880;2024-03-08T03:53:03;20.20;;;9.57;;
16640;SDS011;8434;47.990;7.880;2024-03-08T03:55:52;19.33;;;9.53;;
16640;SDS011;8434;47.990;7.880;2024-03-08T03:58:37;22.83;;;11.03;;
16640;SDS011;8434;47.990;7.880;2024-03-08T04:01:25;21.30;;;10.17;;
16640;SDS011;8434;47.990;7.880;2024-03-08T04:04:10;19.43;;;9.33;;
16640;SDS011;8434;47.990;7.880;2024-03-08T04:06:56;24.17;;;9.97;;
16640;SDS011;8434;47.990;7.880;2024-03-08T04:09:42;21.60;;;8.90;;
16640;SDS011;8434;47.990;7.880;2024-03-08T04:12:27;21.50;;;10.27;;
16640;SDS011;8434;47.990;7.880;2024-03-08T04:15:14;22.23;;;10.47;;
16640;SDS011;8434;47.990;7.880;2024-03-08T04:18:01;22.83;;;10.87;;
16640;SDS011;8434;47.990;7.880;2024-03-08T04:20:46;24.83;;;12.00;;
16640;SDS011;8434;47.990;7.880;2024-03-08T04:23:32;23.50;;;11.13;;
16640;SDS011;8434;47.990;7.880;2024-03-08T04:26:20;25.13;;;11.13;;
16640;SDS011;8434;47.990;7.880;2024-03-08T04:29:05;25.60;;;10.00;;
16640;SDS011;8434;47.990;7.880;2024-03-08T04:31:50;23.03;;;10.93;;
16640;SDS011;8434;47.990;7.880;2024-03-08T04:34:39;24.23;;;11.20;;
16640;SDS011;8434;47.990;7.880;2024-03-08T04:37:24;21.87;;;10.63;;
16640;SDS011;8434;47.990;7.880;2024-03-08T04:40:10;21.03;;;11.47;;
16640;SDS011;8434;47.990;7.880;2024-03-08T04:42:55;23.47;;;10.60;;
16640;SDS011;8434;47.990;7.880;2024-03-08T04:45:41;21.77;;;9.83;;
16640;SDS011;8434;47.990;7.880;2024-03-08T04:48:27;21.77;;;9.80;;
16640;SDS011;8434;47.990;7.880;2024-03-08T04:51:14;22.43;;;10.60;;
16640;SDS011;8434;47.990;7.880;2024-03-08T04:54:00;26.43;;;10.83;;
16640;SDS011;8434;47.990;7.880;2024-03-08T04:56:45;22.80;;;11.17;;
16640;SDS011;8434;47.990;7.880;2024-03-08T04:59:31;19.57;;;9.43;;
16640;SDS011;8434;47.990;7.880;2024-03-08T05:02:16;19.17;;;9.40;;
16640;SDS011;8434;47.990;7.880;2024-03-08T05:05:02;20.47;;;10.37;;
16640;SDS011;8434;47.990;7.880;2024-03-08T05:07:51;19.83;;;10.13;;
16640;SDS011;8434;47.990;7.880;2024-03-08T05:10:37;24.17;;;12.07;;
16640;SDS011;8434;47.990;7.880;2024-03-08T05:13:23;17.67;;;9.30;;
16640;SDS011;8434;47.990;7.880;2024-03-08T05:16:08;21.40;;;10.30;;
16640;SDS011;8434;47.990;7.880;2024-03-08T05:18:54;23.17;;;10.47;;
16640;SDS011;8434;47.990;7.880;2024-03-08T05:21:40;22.23;;;10.10;;
16640;SDS011;8434;47.990;7.880;2024-03-08T05:24:27;21.43;;;9.93;;
16640;SDS011;8434;47.990;7.880;2024-03-08T05:27:13;20.23;;;9.67;;
16640;SDS011;8434;47.990;7.880;2024-03-08T05:29:59;27.87;;;12.17;;
16640;SDS011;8434;47.990;7.880;2024-03-08T05:32:44;22.77;;;11.27;;
16640;SDS011;8434;47.990;7.880;2024-03-08T05:35:30;18.57;;;10.23;;
16640;SDS011;8434;47.990;7.880;2024-03-08T05:38:16;20.20;;;9.53;;
16640;SDS011;8434;47.990;7.880;2024-03-08T05:41:03;22.17;;;10.33;;
16640;SDS011;8434;47.990;7.880;2024-03-08T05:43:49;21.23;;;11.50;;
16640;SDS011;8434;47.990;7.880;2024-03-08T05:46:35;25.67;;;11.80;;
16640;SDS011;8434;47.990;7.880;2024-03-08T05:49:20;20.87;;;10.03;;
16640;SDS011;8434;47.990;7.880;2024-03-08T05:52:05;23.27;;;11.47;;
16640;SDS011;8434;47.990;7.880;2024-03-08T05:54:51;21.77;;;9.30;;
16640;SDS011;8434;47.990;7.880;2024-03-08T05:57:37;21.57;;;9.63;;
16640;SDS011;8434;47.990;7.880;2024-03-08T06:00:24;20.00;;;11.20;;
16640;SDS011;8434;47.990;7.880;2024-03-08T06:03:10;20.10;;;9.40;;
16640;SDS011;8434;47.990;7.880;2024-03-08T06:05:55;18.70;;;9.07;;
16640;SDS011;8434;47.990;7.880;2024-03-08T06:08:41;23.90;;;9.93;;
16640;SDS011;8434;47.990;7.880;2024-03-08T06:11:27;19.57;;;9.13;;
16640;SDS011;8434;47.990;7.880;2024-03-08T06:14:15;19.80;;;8.57;;
16640;SDS011;8434;47.990;7.880;2024-03-08T06:17:02;18.33;;;8.80;;
16640;SDS011;8434;47.990;7.880;2024-03-08T06:19:50;18.10;;;8.87;;
16640;SDS011;8434;47.990;7.880;2024-03-08T06:22:36;18.13;;;9.40;;
16640;SDS011;8434;47.990;7.880;2024-03-08T06:25:23;17.83;;;9.50;;
16640;SDS011;8434;47.990;7.880;2024-03-08T06:28:09;17.90;;;10.13;;
16640;SDS011;8434;47.990;7.880;2024-03-08T06:30:56;18.73;;;9.97;;
16640;SDS011;8434;47.990;7.880;2024-03-08T06:33:42;20.07;;;9.53;;
16640;SDS011;8434;47.990;7.880;2024-03-08T06:36:27;20.50;;;8.97;;
16640;SDS011;8434;47.990;7.880;2024-03-08T06:39:12;18.73;;;9.40;;
16640;SDS011;8434;47.990;7.880;2024-03-08T06:41:58;19.00;;;10.07;;
16640;SDS011;8434;47.990;7.880;2024-03-08T06:44:44;17.47;;;8.73;;
16640;SDS011;8434;47.990;7.880;2024-03-08T06:47:35;13.17;;;8.17;;
16640;SDS011;8434;47.990;7.880;2024-03-08T06:50:20;13.90;;;7.90;;
16640;SDS011;8434;47.990;7.880;2024-03-08T06:53:06;11.90;;;7.57;;
16640;SDS011;8434;47.990;7.880;2024-03-08T06:55:51;16.03;;;9.63;;
16640;SDS011;8434;47.990;7.880;2024-03-08T06:58:37;16.03;;;9.23;;
16640;SDS011;8434;47.990;7.880;2024-03-08T07:01:22;17.93;;;10.30;;
16640;SDS011;8434;47.990;7.880;2024-03-08T07:04:09;17.33;;;8.57;;
16640;SDS011;8434;47.990;7.880;2024-03-08T07:06:55;15.87;;;9.50;;
16640;SDS011;8434;47.990;7.880;2024-03-08T07:09:44;18.17;;;10.90;;
16640;SDS011;8434;47.990;7.880;2024-03-08T07:12:29;15.53;;;8.37;;
16640;SDS011;8434;47.990;7.880;2024-03-08T07:15:15;17.40;;;9.17;;
16640;SDS011;8434;47.990;7.880;2024-03-08T07:18:03;18.60;;;9.33;;
16640;SDS011;8434;47.990;7.880;2024-03-08T07:20:50;16.63;;;9.53;;
16640;SDS011;8434;47.990;7.880;2024-03-08T07:23:35;16.83;;;9.27;;
16640;SDS011;8434;47.990;7.880;2024-03-08T07:26:40;14.47;;;8.27;;
16640;SDS011;8434;47.990;7.880;2024-03-08T07:29:26;15.67;;;8.00;;
16640;SDS011;8434;47.990;7.880;2024-03-08T07:32:11;12.20;;;7.83;;
16640;SDS011;8434;47.990;7.880;2024-03-08T07:35:04;12.00;;;7.73;;
16640;SDS011;8434;47.990;7.880;2024-03-08T07:37:51;12.30;;;7.40;;
16640;SDS011;8434;47.990;7.880;2024-03-08T07:40:39;13.63;;;7.80;;
16640;SDS011;8434;47.990;7.880;2024-03-08T07:43:28;12.83;;;8.33;;
16640;SDS011;8434;47.990;7.880;2024-03-08T07:46:13;12.67;;;8.13;;
16640;SDS011;8434;47.990;7.880;2024-03-08T07:48:59;11.90;;;7.40;;
16640;SDS011;8434;47.990;7.880;2024-03-08T07:51:44;12.03;;;7.40;;
16640;SDS011;8434;47.990;7.880;2024-03-08T07:54:31;11.70;;;8.00;;
16640;SDS011;8434;47.990;7.880;2024-03-08T07:57:17;10.80;;;7.87;;
16640;SDS011;8434;47.990;7.880;2024-03-08T08:00:02;12.63;;;8.10;;
16640;SDS011;8434;47.990;7.880;2024-03-08T08:02:52;11.40;;;7.30;;
16640;SDS011;8434;47.990;7.880;2024-03-08T08:05:38;12.57;;;7.70;;
16640;SDS011;8434;47.990;7.880;2024-03-08T08:08:23;12.97;;;7.93;;
16640;SDS011;8434;47.990;7.880;2024-03-08T08:11:11;12.37;;;8.30;;
16640;SDS011;8434;47.990;7.880;2024-03-08T08:13:57;10.70;;;7.43;;
16640;SDS011;8434;47.990;7.880;2024-03-08T08:16:43;10.90;;;6.50;;
16640;SDS011;8434;47.990;7.880;2024-03-08T08:19:29;9.90;;;6.83;;
16640;SDS011;8434;47.990;7.880;2024-03-08T08:22:15;10.13;;;7.00;;
16640;SDS011;8434;47.990;7.880;2024-03-08T08:25:04;11.90;;;7.83;;
16640;SDS011;8434;47.990;7.880;2024-03-08T08:27:51;11.50;;;8.00;;
16640;SDS011;8434;47.990;7.880;2024-03-08T08:30:37;15.20;;;7.80;;
16640;SDS011;8434;47.990;7.880;2024-03-08T08:33:23;12.20;;;7.27;;
16640;SDS011;8434;47.990;7.880;2024-03-08T08:36:09;11.30;;;6.83;;
16640;SDS011;8434;47.990;7.880;2024-03-08T08:38:54;11.70;;;7.90;;
16640;SDS011;8434;47.990;7.880;2024-03-08T08:41:40;12.20;;;8.13;;
16640;SDS011;8434;47.990;7.880;2024-03-08T08:44:27;14.00;;;8.00;;
16640;SDS011;8434;47.990;7.880;2024-03-08T08:47:14;14.97;;;9.33;;
16640;SDS011;8434;47.990;7.880;2024-03-08T08:50:03;16.57;;;11.17;;
16640;SDS011;8434;47.990;7.880;2024-03-08T08:52:49;17.60;;;11.27;;
16640;SDS011;8434;47.990;7.880;2024-03-08T08:55:34;16.83;;;10.67;;
16640;SDS011;8434;47.990;7.880;2024-03-08T08:58:19;17.00;;;11.17;;
16640;SDS011;8434;47.990;7.880;2024-03-08T09:01:08;15.87;;;10.17;;
16640;SDS011;8434;47.990;7.880;2024-03-08T09:03:54;17.13;;;10.40;;
16640;SDS011;8434;47.990;7.880;2024-03-08T09:06:39;15.43;;;10.23;;
16640;SDS011;8434;47.990;7.880;2024-03-08T09:09:25;15.20;;;9.93;;
16640;SDS011;8434;47.990;7.880;2024-03-08T09:12:10;16.43;;;10.23;;
16640;SDS011;8434;47.990;7.880;2024-03-08T09:14:57;14.97;;;10.00;;
16640;SDS011;8434;47.990;7.880;2024-03-08T09:17:45;14.30;;;9.73;;
16640;SDS011;8434;47.990;7.880;2024-03-08T09:20:31;14.17;;;9.90;;
16640;SDS011;8434;47.990;7.880;2024-03-08T09:23:16;15.20;;;10.07;;
16640;SDS011;8434;47.990;7.880;2024-03-08T09:26:04;15.97;;;10.17;;
16640;SDS011;8434;47.990;7.880;2024-03-08T09:28:50;15.63;;;10.60;;
16640;SDS011;8434;47.990;7.880;2024-03-08T09:31:36;15.30;;;10.43;;
16640;SDS011;8434;47.990;7.880;2024-03-08T09:34:23;18.20;;;9.93;;
16640;SDS011;8434;47.990;7.880;2024-03-08T09:37:08;13.00;;;8.90;;
16640;SDS011;8434;47.990;7.880;2024-03-08T09:39:58;14.80;;;10.40;;
16640;SDS011;8434;47.990;7.880;2024-03-08T09:42:44;13.27;;;9.77;;
16640;SDS011;8434;47.990;7.880;2024-03-08T09:45:30;14.10;;;9.67;;
16640;SDS011;8434;47.990;7.880;2024-03-08T09:48:17;14.80;;;9.40;;
16640;SDS011;8434;47.990;7.880;2024-03-08T09:51:05;14.30;;;9.47;;
16640;SDS011;8434;47.990;7.880;2024-03-08T09:53:51;13.63;;;8.47;;
16640;SDS011;8434;47.990;7.880;2024-03-08T09:56:37;13.87;;;9.10;;
16640;SDS011;8434;47.990;7.880;2024-03-08T09:59:25;13.23;;;9.27;;
16640;SDS011;8434;47.990;7.880;2024-03-08T10:02:27;15.20;;;9.07;;
16640;SDS011;8434;47.990;7.880;2024-03-08T10:05:12;16.00;;;8.23;;
16640;SDS011;8434;47.990;7.880;2024-03-08T10:07:59;14.80;;;9.70;;
16640;SDS011;8434;47.990;7.880;2024-03-08T10:10:45;11.87;;;8.33;;
16640;SDS011;8434;47.990;7.880;2024-03-08T10:13:30;11.53;;;8.13;;
16640;SDS011;8434;47.990;7.880;2024-03-08T10:16:16;13.50;;;8.67;;
16640;SDS011;8434;47.990;7.880;2024-03-08T10:19:02;12.33;;;8.60;;
16640;SDS011;8434;47.990;7.880;2024-03-08T10:21:49;12.20;;;7.80;;
16640;SDS011;8434;47.990;7.880;2024-03-08T10:24:39;13.40;;;9.10;;
16640;SDS011;8434;47.990;7.880;2024-03-08T10:27:24;13.83;;;9.03;;
16640;SDS011;8434;47.990;7.880;2024-03-08T10:30:11;12.50;;;8.13;;
16640;SDS011;8434;47.990;7.880;2024-03-08T10:32:57;13.43;;;8.37;;
16640;SDS011;8434;47.990;7.880;2024-03-08T10:35:43;12.33;;;8.60;;
16640;SDS011;8434;47.990;7.880;2024-03-08T10:38:29;12.90;;;8.60;;
16640;SDS011;8434;47.990;7.880;2024-03-08T10:41:17;11.50;;;8.27;;
16640;SDS011;8434;47.990;7.880;2024-03-08T10:44:11;11.97;;;8.07;;
16640;SDS011;8434;47.990;7.880;2024-03-08T10:47:01;12.63;;;9.30;;
16640;SDS011;8434;47.990;7.880;2024-03-08T10:49:54;13.07;;;8.53;;
16640;SDS011;8434;47.990;7.880;2024-03-08T10:52:39;12.53;;;7.97;;
16640;SDS011;8434;47.990;7.880;2024-03-08T10:55:25;12.60;;;8.10;;
16640;SDS011;8434;47.990;7.880;2024-03-08T10:58:12;12.90;;;8.47;;
16640;SDS011;8434;47.990;7.880;2024-03-08T11:00:58;16.77;;;8.63;;
16640;SDS011;8434;47.990;7.880;2024-03-08T11:03:44;12.67;;;7.90;;
16640;SDS011;8434;47.990;7.880;2024-03-08T11:06:31;12.27;;;8.37;;
16640;SDS011;8434;47.990;7.880;2024-03-08T11:09:30;13.10;;;8.20;;
16640;SDS011;8434;47.990;7.880;2024-03-08T11:12:19;12.63;;;7.90;;
16640;SDS011;8434;47.990;7.880;2024-03-08T11:15:11;16.13;;;9.20;;
16640;SDS011;8434;47.990;7.880;2024-03-08T11:17:58;13.43;;;7.87;;
16640;SDS011;8434;47.990;7.880;2024-03-08T11:20:44;13.23;;;8.17;;
16640;SDS011;8434;47.990;7.880;2024-03-08T11:23:29;14.17;;;8.33;;
16640;SDS011;8434;47.990;7.880;2024-03-08T11:26:18;11.47;;;7.93;;
16640;SDS011;8434;47.990;7.880;2024-03-08T11:32:06;13.53;;;8.60;;
16640;SDS011;8434;47.990;7.880;2024-03-08T11:34:51;12.70;;;8.00;;
16640;SDS011;8434;47.990;7.880;2024-03-08T11:37:38;12.27;;;8.37;;
16640;SDS011;8434;47.990;7.880;2024-03-08T11:40:24;13.37;;;8.40;;
16640;SDS011;8434;47.990;7.880;2024-03-08T11:43:09;10.90;;;7.60;;
16640;SDS011;8434;47.990;7.880;2024-03-08T11:46:07;13.20;;;7.87;;
16640;SDS011;8434;47.990;7.880;2024-03-08T11:48:54;11.80;;;9.03;;
16640;SDS011;8434;47.990;7.880;2024-03-08T11:51:40;11.90;;;7.70;;
16640;SDS011;8434;47.990;7.880;2024-03-08T11:54:25;13.43;;;7.73;;
16640;SDS011;8434;47.990;7.880;2024-03-08T11:57:11;12.23;;;8.23;;
16640;SDS011;8434;47.990;7.880;2024-03-08T11:59:56;17.93;;;9.27;;
16640;SDS011;8434;47.990;7.880;2024-03-08T12:02:42;12.57;;;8.27;;
16640;SDS011;8434;47.990;7.880;2024-03-08T12:05:36;14.20;;;9.00;;
16640;SDS011;8434;47.990;7.880;2024-03-08T12:08:22;12.00;;;7.10;;
16640;SDS011;8434;47.990;7.880;2024-03-08T12:11:07;14.83;;;9.23;;
16640;SDS011;8434;47.990;7.880;2024-03-08T12:13:53;13.70;;;8.80;;
16640;SDS011;8434;47.990;7.880;2024-03-08T12:16:41;14.87;;;8.57;;
16640;SDS011;8434;47.990;7.880;2024-03-08T12:19:27;15.33;;;9.53;;
16640;SDS011;8434;47.990;7.880;2024-03-08T12:22:14;15.97;;;9.33;;
16640;SDS011;8434;47.990;7.880;2024-03-08T12:25:03;16.23;;;9.50;;
16640;SDS011;8434;47.990;7.880;2024-03-08T12:27:50;14.67;;;9.43;;
16640;SDS011;8434;47.990;7.880;2024-03-08T12:30:37;14.70;;;9.43;;
16640;SDS011;8434;47.990;7.880;2024-03-08T12:33:29;14.07;;;8.90;;
16640;SDS011;8434;47.990;7.880;2024-03-08T12:36:14;13.23;;;9.00;;
16640;SDS011;8434;47.990;7.880;2024-03-08T12:39:02;12.03;;;8.30;;
16640;SDS011;8434;47.990;7.880;2024-03-08T12:41:48;13.93;;;8.90;;
16640;SDS011;8434;47.990;7.880;2024-03-08T12:44:35;14.33;;;8.97;;
16640;SDS011;8434;47.990;7.880;2024-03-08T12:47:24;14.87;;;10.40;;
16640;SDS011;8434;47.990;7.880;2024-03-08T12:50:14;15.27;;;9.70;;
16640;SDS011;8434;47.990;7.880;2024-03-08T12:53:01;17.07;;;10.07;;
16640;SDS011;8434;47.990;7.880;2024-03-08T12:55:49;13.77;;;8.50;;
16640;SDS011;8434;47.990;7.880;2024-03-08T12:58:34;17.07;;;11.23;;
16640;SDS011;8434;47.990;7.880;2024-03-08T13:01:20;18.03;;;11.60;;
16640;SDS011;8434;47.990;7.880;2024-03-08T13:04:06;16.30;;;10.47;;
16640;SDS011;8434;47.990;7.880;2024-03-08T13:06:55;17.10;;;10.90;;
16640;SDS011;8434;47.990;7.880;2024-03-08T13:09:40;17.00;;;10.83;;
16640;SDS011;8434;47.990;7.880;2024-03-08T13:12:28;18.63;;;11.80;;
16640;SDS011;8434;47.990;7.880;2024-03-08T13:15:15;18.10;;;11.37;;
16640;SDS011;8434;47.990;7.880;2024-03-08T13:18:04;16.90;;;11.33;;
16640;SDS011;8434;47.990;7.880;2024-03-08T13:20:53;18.60;;;11.77;;
16640;SDS011;8434;47.990;7.880;2024-03-08T13:23:39;18.33;;;10.50;;
16640;SDS011;8434;47.990;7.880;2024-03-08T13:26:25;17.93;;;12.17;;
16640;SDS011;8434;47.990;7.880;2024-03-08T13:29:21;18.00;;;11.63;;
16640;SDS011;8434;47.990;7.880;2024-03-08T13:32:07;17.17;;;11.20;;
16640;SDS011;8434;47.990;7.880;2024-03-08T13:34:56;17.80;;;11.33;;
16640;SDS011;8434;47.990;7.880;2024-03-08T13:37:41;19.00;;;11.07;;
16640;SDS011;8434;47.990;7.880;2024-03-08T13:40:27;20.20;;;12.30;;
16640;SDS011;8434;47.990;7.880;2024-03-08T13:43:13;15.23;;;10.23;;
16640;SDS011;8434;47.990;7.880;2024-03-08T13:46:00;15.53;;;10.53;;
16640;SDS011;8434;47.990;7.880;2024-03-08T13:48:45;15.07;;;10.33;;
16640;SDS011;8434;47.990;7.880;2024-03-08T13:51:31;17.87;;;11.37;;
16640;SDS011;8434;47.990;7.880;2024-03-08T13:54:20;17.07;;;11.07;;
16640;SDS011;8434;47.990;7.880;2024-03-08T13:57:05;17.97;;;10.57;;
16640;SDS011;8434;47.990;7.880;2024-03-08T13:59:51;15.07;;;10.60;;
16640;SDS011;8434;47.990;7.880;2024-03-08T14:02:38;16.27;;;10.10;;
16640;SDS011;8434;47.990;7.880;2024-03-08T14:05:24;15.30;;;10.03;;
16640;SDS011;8434;47.990;7.880;2024-03-08T14:08:11;17.10;;;10.50;;
16640;SDS011;8434;47.990;7.880;2024-03-08T14:10:57;14.23;;;9.17;;
16640;SDS011;8434;47.990;7.880;2024-03-08T14:13:42;13.57;;;9.10;;
16640;SDS011;8434;47.990;7.880;2024-03-08T14:16:29;17.50;;;10.10;;
16640;SDS011;8434;47.990;7.880;2024-03-08T14:19:16;15.17;;;10.10;;
16640;SDS011;8434;47.990;7.880;2024-03-08T14:22:02;16.10;;;10.67;;
16640;SDS011;8434;47.990;7.880;2024-03-08T14:24:48;17.57;;;10.53;;
16640;SDS011;8434;47.990;7.880;2024-03-08T14:27:33;15.37;;;10.63;;
16640;SDS011;8434;47.990;7.880;2024-03-08T14:30:19;16.30;;;10.43;;
16640;SDS011;8434;47.990;7.880;2024-03-08T14:33:20;13.17;;;9.23;;
16640;SDS011;8434;47.990;7.880;2024-03-08T14:36:07;14.87;;;9.30;;
16640;SDS011;8434;47.990;7.880;2024-03-08T14:38:54;17.80;;;10.03;;
16640;SDS011;8434;47.990;7.880;2024-03-08T14:41:40;17.10;;;9.43;;
16640;SDS011;8434;47.990;7.880;2024-03-08T14:44:25;15.53;;;10.43;;
16640;SDS011;8434;47.990;7.880;2024-03-08T14:47:13;15.53;;;9.77;;
16640;SDS011;8434;47.990;7.880;2024-03-08T14:49:59;14.63;;;9.63;;
16640;SDS011;8434;47.990;7.880;2024-03-08T14:52:46;14.90;;;9.67;;
16640;SDS011;8434;47.990;7.880;2024-03-08T14:55:32;14.03;;;9.20;;
16640;SDS011;8434;47.990;7.880;2024-03-08T14:58:19;15.10;;;9.70;;
16640;SDS011;8434;47.990;7.880;2024-03-08T15:01:06;14.10;;;9.23;;
16640;SDS011;8434;47.990;7.880;2024-03-08T15:03:52;16.43;;;10.47;;
16640;SDS011;8434;47.990;7.880;2024-03-08T15:06:39;14.87;;;9.63;;
16640;SDS011;8434;47.990;7.880;2024-03-08T15:09:28;14.50;;;9.60;;
16640;SDS011;8434;47.990;7.880;2024-03-08T15:12:21;13.83;;;9.33;;
16640;SDS011;8434;47.990;7.880;2024-03-08T15:15:11;16.67;;;10.00;;
16640;SDS011;8434;47.990;7.880;2024-03-08T15:17:58;16.50;;;10.30;;
16640;SDS011;8434;47.990;7.880;2024-03-08T15:20:43;13.77;;;9.30;;
16640;SDS011;8434;47.990;7.880;2024-03-08T15:23:31;15.63;;;9.93;;
16640;SDS011;8434;47.990;7.880;2024-03-08T15:26:18;16.33;;;9.83;;
16640;SDS011;8434;47.990;7.880;2024-03-08T15:29:04;20.40;;;10.60;;
16640;SDS011;8434;47.990;7.880;2024-03-08T15:31:49;16.97;;;10.60;;
16640;SDS011;8434;47.990;7.880;2024-03-08T15:34:35;17.60;;;10.37;;
16640;SDS011;8434;47.990;7.880;2024-03-08T15:37:22;13.67;;;9.80;;
16640;SDS011;8434;47.990;7.880;2024-03-08T15:40:08;16.93;;;10.47;;
16640;SDS011;8434;47.990;7.880;2024-03-08T15:42:57;15.53;;;9.77;;
16640;SDS011;8434;47.990;7.880;2024-03-08T15:45:43;14.80;;;9.93;;
16640;SDS011;8434;47.990;7.880;2024-03-08T15:48:28;17.67;;;9.50;;
16640;SDS011;8434;47.990;7.880;2024-03-08T15:51:20;17.27;;;10.80;;
16640;SDS011;8434;47.990;7.880;2024-03-08T15:54:05;14.50;;;9.27;;
16640;SDS011;8434;47.990;7.880;2024-03-08T15:56:51;15.10;;;10.13;;
16640;SDS011;8434;47.990;7.880;2024-03-08T15:59:38;16.63;;;9.90;;
16640;SDS011;8434;47.990;7.880;2024-03-08T16:02:25;20.73;;;10.30;;
16640;SDS011;8434;47.990;7.880;2024-03-08T16:05:12;18.53;;;11.37;;
16640;SDS011;8434;47.990;7.880;2024-03-08T16:07:58;16.23;;;10.17;;
16640;SDS011;8434;47.990;7.880;2024-03-08T16:10:44;16.17;;;10.73;;
16640;SDS011;8434;47.990;7.880;2024-03-08T16:13:33;15.20;;;10.43;;
16640;SDS011;8434;47.990;7.880;2024-03-08T16:16:23;16.17;;;10.00;;
16640;SDS011;8434;47.990;7.880;2024-03-08T16:19:08;15.30;;;11.00;;
16640;SDS011;8434;47.990;7.880;2024-03-08T16:21:53;14.70;;;8.97;;
16640;SDS011;8434;47.990;7.880;2024-03-08T16:24:42;15.00;;;10.77;;
16640;SDS011;8434;47.990;7.880;2024-03-08T16:27:28;21.43;;;10.27;;
16640;SDS011;8434;47.990;7.880;2024-03-08T16:30:20;13.87;;;9.03;;
16640;SDS011;8434;47.990;7.880;2024-03-08T16:33:09;17.70;;;9.67;;
16640;SDS011;8434;47.990;7.880;2024-03-08T16:35:54;14.47;;;10.43;;
16640;SDS011;8434;47.990;7.880;2024-03-08T16:38:40;14.67;;;9.50;;